sensor_id;sensor_type;location;lat;lon;timestamp;temperature;humidity
1524;DHT22;755;53.658;10.118;2023-09-19T00:03:43;16.60;99.90
1524;DHT22;755;53.658;10.118;2023-09-19T00:13:47;16.60;99.90
1524;DHT22;755;53.658;10.118;2023-09-19T00:23:51;16.50;99.90
1524;DHT22;755;53.658;10.118;2023-09-19T00:33:53;16.50;99.90
1524;DHT22;755;53.658;10.118;2023-09-19T00:43:59;16.40;99.90
1524;DHT22;755;53.658;10.118;2023-09-19T00:54:02;16.40;99.90
1524;DHT22;755;53.658;10.118;2023-09-19T01:04:06;16.30;99.90
1524;DHT22;755;53.658;10.118;2023-09-19T01:14:20;16.30;99.90
1524;DHT22;755;53.658;10.118;2023-09-19T01:24:43;16.40;99.90
1524;DHT22;755;53.658;10.118;2023-09-19T01:34:57;16.30;99.90
1524;DHT22;755;53.658;10.118;2023-09-19T01:45:06;16.30;99.90
1524;DHT22;755;53.658;10.118;2023-09-19T01:55:11;16.20;99.90
1524;DHT22;755;53.658;10.118;2023-09-19T02:05:22;16.20;99.90
1524;DHT22;755;53.658;10.118;2023-09-19T02:15:26;16.10;99.90
1524;DHT22;755;53.658;10.118;2023-09-19T02:25:28;16.00;99.90
1524;DHT22;755;53.658;10.118;2023-09-19T02:35:33;16.00;99.90
1524;DHT22;755;53.658;10.118;2023-09-19T02:45:37;15.90;99.90
1524;DHT22;755;53.658;10.118;2023-09-19T02:55:41;15.70;99.90
1524;DHT22;755;53.658;10.118;2023-09-19T03:05:43;15.80;99.90
1524;DHT22;755;53.658;10.118;2023-09-19T03:15:50;15.90;99.90
1524;DHT22;755;53.658;10.118;2023-09-19T03:25:52;15.90;99.90
1524;DHT22;755;53.658;10.118;2023-09-19T03:35:58;16.00;99.90
1524;DHT22;755;53.658;10.118;2023-09-19T03:46:02;15.90;99.90
1524;DHT22;755;53.658;10.118;2023-09-19T03:56:07;15.90;99.90
1524;DHT22;755;53.658;10.118;2023-09-19T04:06:09;15.80;99.90
1524;DHT22;755;53.658;10.118;2023-09-19T04:16:14;15.80;99.90
1524;DHT22;755;53.658;10.118;2023-09-19T04:26:16;15.70;99.90
1524;DHT22;755;53.658;10.118;2023-09-19T04:36:21;15.30;99.90
1524;DHT22;755;53.658;10.118;2023-09-19T04:46:23;15.20;99.90
1524;DHT22;755;53.658;10.118;2023-09-19T04:56:28;15.00;99.90
1524;DHT22;755;53.658;10.118;2023-09-19T05:06:30;14.90;99.90
1524;DHT22;755;53.658;10.118;2023-09-19T05:16:37;14.80;99.90
1524;DHT22;755;53.658;10.118;2023-09-19T05:26:41;14.70;99.90
1524;DHT22;755;53.658;10.118;2023-09-19T05:36:48;14.60;99.90
1524;DHT22;755;53.658;10.118;2023-09-19T05:46:51;14.50;99.90
1524;DHT22;755;53.658;10.118;2023-09-19T05:56:55;14.50;99.90
1524;DHT22;755;53.658;10.118;2023-09-19T06:06:58;14.50;99.90
1524;DHT22;755;53.658;10.118;2023-09-19T06:17:03;14.60;99.90
1524;DHT22;755;53.658;10.118;2023-09-19T06:27:06;14.90;99.90
1524;DHT22;755;53.658;10.118;2023-09-19T06:37:13;15.10;99.90
1524;DHT22;755;53.658;10.118;2023-09-19T06:47:16;15.20;99.90
1524;DHT22;755;53.658;10.118;2023-09-19T06:57:20;15.40;99.90
1524;DHT22;755;53.658;10.118;2023-09-19T07:07:22;15.60;99.90
1524;DHT22;755;53.658;10.118;2023-09-19T07:17:26;15.60;99.90
1524;DHT22;755;53.658;10.118;2023-09-19T07:27:28;15.70;99.90
1524;DHT22;755;53.658;10.118;2023-09-19T07:37:32;15.80;99.90
1524;DHT22;755;53.658;10.118;2023-09-19T07:47:34;16.00;99.90
1524;DHT22;755;53.658;10.118;2023-09-19T07:57:38;16.00;99.90
1524;DHT22;755;53.658;10.118;2023-09-19T08:07:43;15.80;99.90
1524;DHT22;755;53.658;10.118;2023-09-19T08:17:48;15.60;99.90
1524;DHT22;755;53.658;10.118;2023-09-19T08:27:50;15.50;99.90
1524;DHT22;755;53.658;10.118;2023-09-19T08:37:54;15.70;99.90
1524;DHT22;755;53.658;10.118;2023-09-19T08:48:03;16.00;99.90
1524;DHT22;755;53.658;10.118;2023-09-19T08:58:10;16.00;99.90
1524;DHT22;755;53.658;10.118;2023-09-19T09:08:15;16.00;99.90
1524;DHT22;755;53.658;10.118;2023-09-19T09:18:19;16.20;99.90
1524;DHT22;755;53.658;10.118;2023-09-19T09:28:24;16.30;99.90
1524;DHT22;755;53.658;10.118;2023-09-19T09:38:43;16.40;1.00
1524;DHT22;755;53.658;10.118;2023-09-19T09:48:47;16.60;1.00
1524;DHT22;755;53.658;10.118;2023-09-19T09:59:12;17.10;99.90
1524;DHT22;755;53.658;10.118;2023-09-19T10:09:19;17.40;99.90
1524;DHT22;755;53.658;10.118;2023-09-19T10:19:29;17.50;1.00
1524;DHT22;755;53.658;10.118;2023-09-19T10:29:36;17.50;94.20
1524;DHT22;755;53.658;10.118;2023-09-19T10:39:45;17.50;1.00
1524;DHT22;755;53.658;10.118;2023-09-19T10:49:48;17.70;1.00
1524;DHT22;755;53.658;10.118;2023-09-19T11:00:06;18.00;99.90
1524;DHT22;755;53.658;10.118;2023-09-19T11:10:44;18.00;99.90
1524;DHT22;755;53.658;10.118;2023-09-19T11:20:49;18.00;1.00
1524;DHT22;755;53.658;10.118;2023-09-19T11:30:52;18.10;1.00
1524;DHT22;755;53.658;10.118;2023-09-19T11:51:42;17.80;99.90
1524;DHT22;755;53.658;10.118;2023-09-19T12:01:51;18.00;1.00
1524;DHT22;755;53.658;10.118;2023-09-19T12:12:00;17.90;99.90
1524;DHT22;755;53.658;10.118;2023-09-19T12:22:03;18.00;1.00
1524;DHT22;755;53.658;10.118;2023-09-19T12:32:07;18.30;1.00
1524;DHT22;755;53.658;10.118;2023-09-19T12:42:10;18.40;99.90
1524;DHT22;755;53.658;10.118;2023-09-19T12:52:15;18.40;1.00
1524;DHT22;755;53.658;10.118;2023-09-19T13:02:20;18.70;1.00
1524;DHT22;755;53.658;10.118;2023-09-19T13:12:38;18.70;1.00
1524;DHT22;755;53.658;10.118;2023-09-19T13:22:43;18.70;1.00
1524;DHT22;755;53.658;10.118;2023-09-19T13:32:52;18.60;1.00
1524;DHT22;755;53.658;10.118;2023-09-19T13:42:54;18.80;99.90
1524;DHT22;755;53.658;10.118;2023-09-19T13:52:57;18.60;1.00
1524;DHT22;755;53.658;10.118;2023-09-19T14:03:01;18.50;1.00
1524;DHT22;755;53.658;10.118;2023-09-19T14:13:06;18.50;45.50
1524;DHT22;755;53.658;10.118;2023-09-19T14:23:08;18.60;1.00
1524;DHT22;755;53.658;10.118;2023-09-19T14:33:11;18.60;99.90
1524;DHT22;755;53.658;10.118;2023-09-19T14:43:16;18.80;99.90
1524;DHT22;755;53.658;10.118;2023-09-19T14:53:19;18.80;49.40
1524;DHT22;755;53.658;10.118;2023-09-19T15:03:21;18.70;99.90
1524;DHT22;755;53.658;10.118;2023-09-19T15:13:25;18.60;1.00
1524;DHT22;755;53.658;10.118;2023-09-19T15:23:29;18.60;99.90
1524;DHT22;755;53.658;10.118;2023-09-19T15:33:34;18.40;1.00
1524;DHT22;755;53.658;10.118;2023-09-19T15:43:36;18.40;99.90
1524;DHT22;755;53.658;10.118;2023-09-19T15:53:43;18.40;83.10
1524;DHT22;755;53.658;10.118;2023-09-19T16:03:48;18.40;99.90
1524;DHT22;755;53.658;10.118;2023-09-19T16:13:52;18.40;1.00
1524;DHT22;755;53.658;10.118;2023-09-19T16:23:55;18.40;99.90
1524;DHT22;755;53.658;10.118;2023-09-19T16:33:59;18.30;1.00
1524;DHT22;755;53.658;10.118;2023-09-19T16:44:01;18.30;1.00
1524;DHT22;755;53.658;10.118;2023-09-19T16:54:06;18.30;1.00
1524;DHT22;755;53.658;10.118;2023-09-19T17:04:08;18.30;1.00
1524;DHT22;755;53.658;10.118;2023-09-19T17:14:11;18.30;1.00
1524;DHT22;755;53.658;10.118;2023-09-19T17:24:13;18.30;99.90
1524;DHT22;755;53.658;10.118;2023-09-19T17:34:16;18.20;1.00
1524;DHT22;755;53.658;10.118;2023-09-19T17:44:19;18.20;99.90
1524;DHT22;755;53.658;10.118;2023-09-19T17:54:22;18.30;72.10
1524;DHT22;755;53.658;10.118;2023-09-19T18:04:25;18.30;1.00
1524;DHT22;755;53.658;10.118;2023-09-19T18:14:29;18.30;7.30
1524;DHT22;755;53.658;10.118;2023-09-19T18:24:32;18.30;1.00
1524;DHT22;755;53.658;10.118;2023-09-19T18:34:37;18.30;3.80
1524;DHT22;755;53.658;10.118;2023-09-19T18:44:40;18.30;1.00
1524;DHT22;755;53.658;10.118;2023-09-19T18:54:44;18.30;99.90
1524;DHT22;755;53.658;10.118;2023-09-19T19:04:46;18.30;1.00
1524;DHT22;755;53.658;10.118;2023-09-19T19:14:49;18.30;99.90
1524;DHT22;755;53.658;10.118;2023-09-19T19:24:51;18.30;99.90
1524;DHT22;755;53.658;10.118;2023-09-19T19:34:57;18.20;58.50
1524;DHT22;755;53.658;10.118;2023-09-19T19:45:02;18.20;1.00
1524;DHT22;755;53.658;10.118;2023-09-19T19:55:05;18.20;1.00
1524;DHT22;755;53.658;10.118;2023-09-19T20:05:08;18.20;1.00
1524;DHT22;755;53.658;10.118;2023-09-19T20:15:13;18.10;99.90
1524;DHT22;755;53.658;10.118;2023-09-19T20:25:15;18.10;99.90
1524;DHT22;755;53.658;10.118;2023-09-19T20:35:19;18.10;1.00
1524;DHT22;755;53.658;10.118;2023-09-19T20:45:24;18.10;1.00
1524;DHT22;755;53.658;10.118;2023-09-19T20:55:27;18.10;99.90
1524;DHT22;755;53.658;10.118;2023-09-19T21:05:29;18.00;99.90
1524;DHT22;755;53.658;10.118;2023-09-19T21:15:40;17.90;99.90
1524;DHT22;755;53.658;10.118;2023-09-19T21:25:42;17.80;1.00
1524;DHT22;755;53.658;10.118;2023-09-19T21:35:53;17.70;1.00
1524;DHT22;755;53.658;10.118;2023-09-19T21:45:56;17.70;71.90
1524;DHT22;755;53.658;10.118;2023-09-19T21:56:01;17.70;99.90
1524;DHT22;755;53.658;10.118;2023-09-19T22:06:03;17.70;57.30
1524;DHT22;755;53.658;10.118;2023-09-19T22:16:09;17.60;1.00
1524;DHT22;755;53.658;10.118;2023-09-19T22:26:13;17.50;1.00
1524;DHT22;755;53.658;10.118;2023-09-19T22:36:20;17.30;99.90
1524;DHT22;755;53.658;10.118;2023-09-19T22:46:24;17.00;99.90
1524;DHT22;755;53.658;10.118;2023-09-19T22:56:28;16.80;99.90
1524;DHT22;755;53.658;10.118;2023-09-19T23:06:31;16.60;99.90
1524;DHT22;755;53.658;10.118;2023-09-19T23:16:35;16.40;99.90
1524;DHT22;755;53.658;10.118;2023-09-19T23:26:38;16.30;99.90
1524;DHT22;755;53.658;10.118;2023-09-19T23:36:47;16.30;99.90
1524;DHT22;755;53.658;10.118;2023-09-19T23:46:49;16.40;99.90
1524;DHT22;755;53.658;10.118;2023-09-19T23:56:57;16.50;99.90
